Time;durP1;ratioP1;P1;durP2;ratioP2;P2;SDS_P1;SDS_P2;PMS_P1;PMS_P2;Temp;Humidity;BMP_temperature;BMP_pressure;BME280_temperature;BME280_humidity;BME280_pressure;Samples;Min_cycle;Max_cycle;Signal;HPM_P1;HPM_P2
2022/06/27 00:00:45;;;;;;;3.90;3.47;;;23.10;76.30;;;;;;5027430;28;20030;-58
2022/06/27 00:03:11;;;;;;;4.05;3.10;;;23.00;76.40;;;;;;5030549;28;20040;-59
2022/06/27 00:05:37;;;;;;;4.05;3.00;;;23.00;76.40;;;;;;5031122;28;20098;-58
2022/06/27 00:08:03;;;;;;;3.85;3.55;;;23.00;76.40;;;;;;5031093;28;20038;-58
2022/06/27 00:10:29;;;;;;;4.10;3.70;;;23.00;76.60;;;;;;5030078;28;20060;-60
2022/06/27 00:12:55;;;;;;;3.83;3.22;;;23.00;76.60;;;;;;5026314;28;20050;-58
2022/06/27 00:15:21;;;;;;;4.03;3.50;;;23.00;76.60;;;;;;5025987;28;20048;-59
2022/06/27 00:17:47;;;;;;;3.90;3.50;;;23.00;76.70;;;;;;5031297;28;20018;-58
2022/06/27 00:20:13;;;;;;;3.50;3.20;;;23.00;76.80;;;;;;5024418;28;20052;-58
2022/06/27 00:22:40;;;;;;;3.60;3.30;;;23.00;76.80;;;;;;5026471;28;20409;-56
2022/06/27 00:25:06;;;;;;;4.03;3.55;;;22.90;76.80;;;;;;5031298;28;20033;-56
2022/06/27 00:27:32;;;;;;;3.33;3.03;;;22.90;76.70;;;;;;5028889;28;20377;-59
2022/06/27 00:29:58;;;;;;;3.75;3.45;;;23.00;76.60;;;;;;5025177;28;20021;-57
2022/06/27 00:32:26;;;;;;;3.90;3.50;;;22.90;76.70;;;;;;5026302;28;20022;-56
2022/06/27 00:34:52;;;;;;;5.28;3.65;;;22.90;76.70;;;;;;5034507;28;20060;-57
2022/06/27 00:37:18;;;;;;;4.00;3.28;;;22.90;76.80;;;;;;5029082;28;20028;-58
2022/06/27 00:39:44;;;;;;;4.22;3.83;;;22.90;76.80;;;;;;5029744;28;20486;-59
2022/06/27 00:42:10;;;;;;;4.00;3.53;;;22.90;76.70;;;;;;5024912;28;20528;-58
2022/06/27 00:44:38;;;;;;;4.72;3.22;;;22.90;76.80;;;;;;5025649;28;20064;-59
2022/06/27 00:47:06;;;;;;;3.42;3.13;;;22.90;76.70;;;;;;5026807;28;20117;-59
2022/06/27 00:49:32;;;;;;;3.70;3.40;;;22.90;76.80;;;;;;5028242;28;20044;-58
2022/06/27 00:51:58;;;;;;;4.15;3.80;;;22.90;76.90;;;;;;5022910;28;20494;-58
2022/06/27 00:54:25;;;;;;;4.15;3.75;;;22.90;76.90;;;;;;5031891;28;20075;-58
2022/06/27 00:56:51;;;;;;;3.90;3.58;;;22.80;76.90;;;;;;5029033;28;20026;-58
2022/06/27 00:59:18;;;;;;;4.18;3.63;;;22.80;77.20;;;;;;5019708;28;20026;-58
2022/06/27 01:01:44;;;;;;;4.85;4.32;;;22.80;77.30;;;;;;5027559;28;20029;-58
2022/06/27 01:04:10;;;;;;;6.20;4.18;;;22.80;77.20;;;;;;5027501;28;20026;-59
2022/06/27 01:06:36;;;;;;;4.30;3.90;;;22.80;77.40;;;;;;5032124;28;20029;-59
2022/06/27 01:09:02;;;;;;;3.90;3.28;;;22.80;77.40;;;;;;5022041;28;20061;-58
2022/06/27 01:11:28;;;;;;;5.38;4.03;;;22.80;77.90;;;;;;5020593;28;20029;-58
2022/06/27 01:13:54;;;;;;;4.90;4.22;;;22.80;77.20;;;;;;5034643;28;20496;-58
2022/06/27 01:16:20;;;;;;;3.83;3.53;;;22.70;77.30;;;;;;5031439;28;20505;-59
2022/06/27 01:18:45;;;;;;;4.55;4.10;;;22.80;77.40;;;;;;5026276;28;20100;-58
2022/06/27 01:21:24;;;;;;;3.95;3.55;;;22.70;77.30;;;;;;5018991;28;20129;-58
2022/06/27 01:23:51;;;;;;;3.92;3.53;;;22.70;77.40;;;;;;5032966;28;20064;-58
2022/06/27 01:26:18;;;;;;;4.25;3.85;;;22.60;77.20;;;;;;5027545;28;20052;-58
2022/06/27 01:28:43;;;;;;;3.70;3.40;;;22.60;77.30;;;;;;5034326;28;20466;-59
2022/06/27 01:31:13;;;;;;;3.83;3.45;;;22.60;77.40;;;;;;5031600;28;20032;-57
2022/06/27 01:33:39;;;;;;;3.85;3.40;;;22.60;77.50;;;;;;5026774;28;20057;-56
2022/06/27 01:38:54;;;;;;;3.30;3.00;;;22.60;77.80;;;;;;5028770;28;20436;-56
2022/06/27 01:41:20;;;;;;;3.58;3.28;;;22.50;77.90;;;;;;5033943;28;20110;-56
2022/06/27 01:43:48;;;;;;;3.70;3.40;;;22.60;77.90;;;;;;5034452;28;20489;-57
2022/06/27 01:46:14;;;;;;;3.75;3.38;;;22.60;77.90;;;;;;5032474;28;20025;-56
2022/06/27 01:48:40;;;;;;;3.65;3.22;;;22.60;77.90;;;;;;5020388;28;20037;-56
2022/06/27 01:51:08;;;;;;;3.72;3.33;;;22.60;77.90;;;;;;5026110;28;20033;-56
2022/06/27 01:53:35;;;;;;;3.28;3.00;;;22.50;77.90;;;;;;5030328;28;20033;-56
2022/06/27 01:56:01;;;;;;;3.50;3.20;;;22.50;77.90;;;;;;5024982;28;20048;-56
2022/06/27 01:58:27;;;;;;;3.80;3.35;;;22.50;78.00;;;;;;5033200;28;20466;-57
2022/06/27 02:00:53;;;;;;;3.70;3.40;;;22.50;78.00;;;;;;5032637;28;20078;-56
2022/06/27 02:03:19;;;;;;;4.05;3.65;;;22.60;78.20;;;;;;5029288;28;20473;-57
2022/06/27 02:05:45;;;;;;;3.20;2.90;;;22.60;78.30;;;;;;5029878;28;20029;-56
2022/06/27 02:08:13;;;;;;;3.50;3.20;;;22.50;78.20;;;;;;5032680;28;20476;-56
2022/06/27 02:10:38;;;;;;;4.15;3.80;;;22.60;78.20;;;;;;5031892;28;20025;-56
2022/06/27 02:13:04;;;;;;;3.40;3.10;;;22.60;78.20;;;;;;5031590;28;20041;-57
2022/06/27 02:15:31;;;;;;;3.58;3.28;;;22.60;78.20;;;;;;5027147;28;20406;-57
2022/06/27 02:17:57;;;;;;;4.00;3.45;;;22.60;78.10;;;;;;5033587;28;20053;-57
2022/06/27 02:20:23;;;;;;;5.10;3.30;;;22.60;78.20;;;;;;5018212;28;20049;-57
2022/06/27 02:22:50;;;;;;;3.97;3.58;;;22.50;78.20;;;;;;5030394;28;20032;-57
2022/06/27 02:25:16;;;;;;;3.05;2.78;;;22.60;78.30;;;;;;5025045;28;20156;-56
2022/06/27 02:27:43;;;;;;;3.47;3.17;;;22.60;78.40;;;;;;5033062;28;20108;-56
2022/06/27 02:30:09;;;;;;;3.35;3.05;;;22.60;78.40;;;;;;5030717;28;20371;-56
2022/06/27 02:32:35;;;;;;;3.70;3.30;;;22.60;78.30;;;;;;5027916;28;20408;-56
2022/06/27 02:35:01;;;;;;;3.55;3.25;;;22.60;78.30;;;;;;5031464;28;20018;-58
2022/06/27 02:37:28;;;;;;;4.07;3.33;;;22.60;78.30;;;;;;5026174;28;20105;-57
2022/06/27 02:39:55;;;;;;;3.03;2.72;;;22.60;78.20;;;;;;5027280;28;20037;-57
2022/06/27 02:42:23;;;;;;;3.70;3.40;;;22.60;78.30;;;;;;5023225;28;20069;-57
2022/06/27 02:44:49;;;;;;;4.18;3.78;;;22.70;78.30;;;;;;5025235;28;20033;-56
2022/06/27 02:47:21;;;;;;;3.40;3.10;;;22.70;78.30;;;;;;5028821;28;20495;-57
2022/06/27 02:49:47;;;;;;;4.05;3.58;;;22.70;78.20;;;;;;5030692;28;21859;-58
2022/06/27 02:52:38;;;;;;;3.60;3.30;;;22.80;78.30;;;;;;5021644;28;20034;-57
2022/06/27 02:55:11;;;;;;;3.57;3.27;;;22.80;78.70;;;;;;5027551;28;20033;-57
2022/06/27 02:58:09;;;;;;;3.78;3.40;;;22.80;78.10;;;;;;5027690;28;20100;-58
2022/06/27 03:00:38;;;;;;;4.00;3.50;;;22.90;77.90;;;;;;5018961;28;20121;-58
2022/06/27 03:03:06;;;;;;;3.42;3.13;;;22.90;77.80;;;;;;5027247;28;20056;-57
2022/06/27 03:05:32;;;;;;;3.47;3.17;;;22.90;77.80;;;;;;5031018;28;20029;-57
2022/06/27 03:07:58;;;;;;;4.07;3.67;;;23.00;77.80;;;;;;5015769;28;20104;-57
2022/06/27 03:10:24;;;;;;;3.42;3.13;;;23.00;77.60;;;;;;5020942;28;20025;-58
2022/06/27 03:12:50;;;;;;;4.50;3.80;;;23.00;77.40;;;;;;5024469;28;20026;-57
2022/06/27 03:15:15;;;;;;;4.15;3.75;;;23.10;77.40;;;;;;5015541;28;20032;-58
2022/06/27 03:17:41;;;;;;;3.88;3.47;;;23.10;77.40;;;;;;5025985;28;20021;-58
2022/06/27 03:20:07;;;;;;;3.97;3.53;;;23.10;77.30;;;;;;5025424;28;20022;-58
2022/06/27 03:22:33;;;;;;;4.43;3.88;;;23.20;77.20;;;;;;5022324;28;20033;-57
2022/06/27 03:24:59;;;;;;;4.07;3.78;;;23.30;77.20;;;;;;5025865;28;20026;-57
2022/06/27 03:27:24;;;;;;;3.67;3.20;;;23.40;77.20;;;;;;5032392;28;20523;-58
2022/06/27 03:29:50;;;;;;;4.07;3.53;;;23.40;77.20;;;;;;5029827;28;20030;-58
2022/06/27 03:32:16;;;;;;;3.20;2.90;;;23.50;77.30;;;;;;5031161;28;20027;-58
2022/06/27 03:34:41;;;;;;;3.67;3.30;;;23.60;77.40;;;;;;5023207;28;20100;-58
2022/06/27 03:37:07;;;;;;;4.32;3.38;;;23.70;77.40;;;;;;5029101;28;20032;-58
2022/06/27 03:39:33;;;;;;;3.97;3.58;;;24.00;78.20;;;;;;5029971;28;20477;-57
2022/06/27 03:41:59;;;;;;;3.78;3.47;;;24.30;78.60;;;;;;5025777;28;20088;-57
2022/06/27 03:44:25;;;;;;;3.78;3.47;;;24.90;78.40;;;;;;5032533;28;20025;-58
2022/06/27 03:46:51;;;;;;;2.88;2.67;;;25.40;77.60;;;;;;5029601;28;20060;-57
2022/06/27 03:52:00;;;;;;;3.53;3.22;;;26.90;75.80;;;;;;5031994;28;20095;-58
2022/06/27 03:54:26;;;;;;;2.50;2.30;;;27.90;74.20;;;;;;5023931;28;20474;-58
2022/06/27 03:56:53;;;;;;;2.75;2.50;;;28.80;72.70;;;;;;5024441;28;20538;-58
2022/06/27 03:59:19;;;;;;;2.35;2.20;;;29.60;71.30;;;;;;5031008;28;20030;-58
2022/06/27 04:01:46;;;;;;;2.67;2.47;;;30.40;69.90;;;;;;5031062;28;20030;-58
2022/06/27 04:04:11;;;;;;;2.60;2.40;;;31.20;68.40;;;;;;5032559;28;20424;-59
2022/06/27 04:06:37;;;;;;;2.60;2.40;;;31.90;67.00;;;;;;5031401;28;20045;-58
2022/06/27 04:09:03;;;;;;;3.28;2.60;;;32.60;65.70;;;;;;5034280;28;20489;-58
2022/06/27 04:11:29;;;;;;;2.88;1.95;;;33.10;64.30;;;;;;5033306;28;20044;-58
2022/06/27 04:13:54;;;;;;;2.50;2.30;;;33.70;63.20;;;;;;5032297;28;20494;-58
2022/06/27 04:16:20;;;;;;;2.60;2.40;;;34.20;62.10;;;;;;5035255;28;20485;-58
2022/06/27 04:18:46;;;;;;;2.95;2.75;;;34.80;61.10;;;;;;5039656;28;20057;-58
2022/06/27 04:21:11;;;;;;;2.60;2.40;;;35.20;60.10;;;;;;5029799;28;20393;-58
2022/06/27 04:23:37;;;;;;;2.45;2.25;;;35.60;59.10;;;;;;5036016;28;20426;-58
2022/06/27 04:26:03;;;;;;;2.30;2.10;;;36.00;58.50;;;;;;5033806;28;20021;-59
2022/06/27 04:28:30;;;;;;;2.10;2.00;;;36.40;57.80;;;;;;5023661;28;20087;-58
2022/06/27 04:30:56;;;;;;;3.08;2.38;;;36.70;57.20;;;;;;5034698;28;20485;-58
2022/06/27 04:33:22;;;;;;;2.08;1.98;;;37.10;56.70;;;;;;5027625;28;20033;-58
2022/06/27 04:35:48;;;;;;;2.20;2.10;;;37.40;56.20;;;;;;5035691;28;20115;-58
2022/06/27 04:38:14;;;;;;;2.70;2.50;;;37.70;55.30;;;;;;5024924;28;20022;-58
2022/06/27 04:40:40;;;;;;;2.65;2.13;;;38.00;54.70;;;;;;5027412;28;20168;-58
2022/06/27 04:43:06;;;;;;;2.30;2.20;;;38.30;54.10;;;;;;5025725;28;20037;-58
2022/06/27 04:45:35;;;;;;;2.50;2.30;;;38.50;53.70;;;;;;5032669;28;20029;-58
2022/06/27 04:48:01;;;;;;;2.17;2.05;;;38.90;53.20;;;;;;5027725;28;20119;-58
2022/06/27 04:50:28;;;;;;;2.50;2.30;;;39.10;52.70;;;;;;5033418;28;20038;-58
2022/06/27 04:52:55;;;;;;;2.30;2.10;;;39.40;52.30;;;;;;5026532;28;20050;-58
2022/06/27 04:55:21;;;;;;;2.50;2.30;;;39.60;52.10;;;;;;5031918;28;20536;-58
2022/06/27 04:57:48;;;;;;;3.85;2.40;;;39.80;51.90;;;;;;5020092;28;20037;-58
2022/06/27 05:00:16;;;;;;;2.40;2.30;;;40.10;51.00;;;;;;5022988;28;20579;-58
2022/06/27 05:02:42;;;;;;;2.60;2.40;;;40.30;50.50;;;;;;5028029;28;20022;-57
2022/06/27 05:05:08;;;;;;;2.00;1.90;;;40.50;50.10;;;;;;5027994;28;20060;-58
2022/06/27 05:07:34;;;;;;;2.28;2.13;;;40.60;49.90;;;;;;5028383;28;20049;-58
2022/06/27 05:10:00;;;;;;;2.38;2.17;;;40.70;49.40;;;;;;5029883;28;20461;-58
2022/06/27 05:12:27;;;;;;;2.17;1.98;;;40.80;49.20;;;;;;5026079;28;20358;-58
2022/06/27 05:14:53;;;;;;;2.30;2.10;;;40.90;49.00;;;;;;5025319;28;20112;-58
2022/06/27 05:17:20;;;;;;;2.88;2.38;;;40.90;48.60;;;;;;5030816;28;20056;-58
2022/06/27 05:19:46;;;;;;;2.10;2.00;;;40.90;48.20;;;;;;5026654;28;20030;-58
2022/06/27 05:22:11;;;;;;;2.65;2.00;;;40.90;47.80;;;;;;5026862;28;20032;-58
2022/06/27 05:24:37;;;;;;;2.72;2.53;;;40.80;46.80;;;;;;5029717;28;20021;-58
2022/06/27 05:27:04;;;;;;;2.60;2.40;;;40.50;46.30;;;;;;5025124;28;20063;-58
2022/06/27 05:29:30;;;;;;;2.60;2.40;;;40.10;46.10;;;;;;5025246;28;20128;-58
2022/06/27 05:31:56;;;;;;;2.50;2.30;;;39.50;46.40;;;;;;5027147;28;20057;-58
2022/06/27 05:34:21;;;;;;;2.17;2.08;;;38.70;46.70;;;;;;5028053;28;20040;-58
2022/06/27 05:36:47;;;;;;;3.03;2.58;;;37.90;47.40;;;;;;5025400;28;20107;-58
2022/06/27 05:39:14;;;;;;;2.75;2.50;;;37.00;48.00;;;;;;5019939;28;20536;-58
2022/06/27 05:41:40;;;;;;;4.28;2.80;;;36.30;48.80;;;;;;5034012;28;20544;-58
2022/06/27 05:44:06;;;;;;;2.70;2.50;;;35.60;49.10;;;;;;5029739;28;20374;-58
2022/06/27 05:46:32;;;;;;;3.20;2.90;;;35.10;49.70;;;;;;5033457;28;20025;-58
2022/06/27 05:49:00;;;;;;;3.17;2.88;;;34.60;50.10;;;;;;5032061;28;20440;-58
2022/06/27 05:51:29;;;;;;;3.75;3.03;;;34.20;50.50;;;;;;5023318;28;20053;-58
2022/06/27 05:53:56;;;;;;;2.70;2.45;;;33.70;50.90;;;;;;5028841;28;20040;-58
2022/06/27 05:56:26;;;;;;;4.07;2.95;;;33.30;51.40;;;;;;5023582;28;20029;-58
2022/06/27 05:58:52;;;;;;;2.58;2.38;;;32.90;51.90;;;;;;5031262;28;20032;-58
2022/06/27 06:01:17;;;;;;;3.33;2.70;;;32.60;52.50;;;;;;5033773;28;20021;-58
2022/06/27 06:03:44;;;;;;;2.88;2.60;;;32.30;53.00;;;;;;5023945;28;20083;-59
2022/06/27 06:06:10;;;;;;;2.67;2.47;;;32.00;53.40;;;;;;5024849;28;20041;-58
2022/06/27 06:08:37;;;;;;;2.70;2.50;;;31.80;53.90;;;;;;5027859;28;20046;-58
2022/06/27 06:11:03;;;;;;;3.67;3.10;;;31.60;54.50;;;;;;5032760;28;20122;-58
2022/06/27 06:13:30;;;;;;;2.83;2.63;;;31.40;54.70;;;;;;5028779;28;21508;-58
2022/06/27 06:15:57;;;;;;;3.38;3.08;;;31.20;55.00;;;;;;5026085;28;20144;-58
2022/06/27 06:18:23;;;;;;;2.85;2.60;;;31.10;55.30;;;;;;5025787;28;20033;-58
2022/06/27 06:20:49;;;;;;;2.95;2.70;;;30.90;55.50;;;;;;5032460;28;20108;-58
2022/06/27 06:23:15;;;;;;;3.80;3.30;;;30.70;55.80;;;;;;5020020;28;20025;-58
2022/06/27 06:25:42;;;;;;;3.33;3.03;;;30.60;56.30;;;;;;5022980;28;20021;-58
2022/06/27 06:28:09;;;;;;;2.97;2.67;;;30.50;56.50;;;;;;5018939;28;20041;-58
2022/06/27 06:30:35;;;;;;;3.03;2.75;;;30.40;56.90;;;;;;5022978;28;20073;-58
2022/06/27 06:33:05;;;;;;;3.05;2.75;;;30.30;57.40;;;;;;5026912;28;20504;-58
2022/06/27 06:35:32;;;;;;;3.28;2.97;;;30.20;57.50;;;;;;5027076;28;20030;-58
2022/06/27 06:37:58;;;;;;;2.95;2.67;;;30.10;58.30;;;;;;5031035;28;20033;-58
2022/06/27 06:40:24;;;;;;;3.58;3.20;;;30.10;58.00;;;;;;5033483;28;20458;-58
2022/06/27 06:42:51;;;;;;;3.30;3.00;;;30.00;58.30;;;;;;5031525;28;20104;-58
2022/06/27 06:45:17;;;;;;;3.33;3.03;;;29.90;58.60;;;;;;5033273;28;20036;-57
2022/06/27 06:47:48;;;;;;;3.38;3.08;;;29.90;58.90;;;;;;5032266;28;20030;-57
2022/06/27 06:50:18;;;;;;;3.30;3.00;;;29.80;59.00;;;;;;5026882;28;20061;-58
2022/06/27 06:52:46;;;;;;;3.22;2.90;;;29.70;59.20;;;;;;5018861;28;20096;-58
2022/06/27 06:55:13;;;;;;;2.88;2.65;;;29.70;59.10;;;;;;5024033;28;20060;-58
2022/06/27 06:57:39;;;;;;;3.55;3.20;;;29.60;59.30;;;;;;5024590;28;20366;-58
2022/06/27 07:00:07;;;;;;;3.35;3.05;;;29.60;59.50;;;;;;5035494;28;20059;-58
2022/06/27 07:02:33;;;;;;;3.17;2.88;;;29.50;59.70;;;;;;5031632;28;20040;-58
2022/06/27 07:05:01;;;;;;;2.80;2.60;;;29.60;59.80;;;;;;5033590;28;20037;-58
2022/06/27 07:07:28;;;;;;;3.35;3.05;;;29.50;59.70;;;;;;5021778;28;20026;-58
2022/06/27 07:09:54;;;;;;;3.40;3.10;;;29.50;59.80;;;;;;5031288;28;20025;-59
2022/06/27 07:12:20;;;;;;;2.92;2.70;;;29.60;59.90;;;;;;5037427;28;20030;-58
2022/06/27 07:14:47;;;;;;;2.80;2.60;;;29.50;59.60;;;;;;5035017;28;20066;-58
2022/06/27 07:17:12;;;;;;;3.45;2.83;;;29.60;59.70;;;;;;5031059;28;20052;-58
2022/06/27 07:19:38;;;;;;;2.70;2.50;;;29.60;59.60;;;;;;5031761;28;20080;-58
2022/06/27 07:22:07;;;;;;;2.85;2.65;;;29.60;59.60;;;;;;5033929;28;20087;-58
2022/06/27 07:24:33;;;;;;;2.70;2.50;;;29.60;59.70;;;;;;5034696;28;20036;-58
2022/06/27 07:26:59;;;;;;;2.90;2.70;;;29.60;59.70;;;;;;5031626;28;20661;-58
2022/06/27 07:29:26;;;;;;;3.55;2.72;;;29.50;59.70;;;;;;5034122;28;20037;-58
2022/06/27 07:31:53;;;;;;;3.00;2.80;;;29.50;59.70;;;;;;5026608;28;20040;-58
2022/06/27 07:34:21;;;;;;;3.20;2.88;;;29.40;59.80;;;;;;5029501;28;20029;-58
2022/06/27 07:36:48;;;;;;;3.25;2.95;;;29.40;60.00;;;;;;5024597;28;20038;-58
2022/06/27 07:39:14;;;;;;;3.20;2.58;;;29.30;60.10;;;;;;5023385;28;20025;-58
2022/06/27 07:41:40;;;;;;;3.78;3.45;;;29.30;60.20;;;;;;5029100;28;20021;-58
2022/06/27 07:44:06;;;;;;;3.90;3.42;;;29.30;60.30;;;;;;5033856;28;20083;-58
2022/06/27 07:46:35;;;;;;;3.40;3.08;;;29.30;60.40;;;;;;5035157;28;20100;-58
2022/06/27 07:49:00;;;;;;;3.47;3.10;;;29.30;60.10;;;;;;5032051;28;20049;-58
2022/06/27 07:51:27;;;;;;;3.20;2.90;;;29.20;60.20;;;;;;5032028;28;20095;-57
2022/06/27 07:53:53;;;;;;;3.00;2.70;;;29.20;60.00;;;;;;5034034;28;20041;-58
2022/06/27 07:56:22;;;;;;;2.88;2.67;;;29.20;60.00;;;;;;5032686;28;20455;-58
2022/06/27 07:58:48;;;;;;;4.15;3.33;;;29.20;60.00;;;;;;5030106;28;20029;-58
2022/06/27 08:01:15;;;;;;;3.28;2.97;;;29.20;59.90;;;;;;5036288;28;20061;-58
2022/06/27 08:03:44;;;;;;;3.78;2.85;;;29.20;59.90;;;;;;5028975;28;20028;-58
2022/06/27 08:06:16;;;;;;;3.25;2.95;;;29.20;60.50;;;;;;5028923;28;20038;-58
2022/06/27 08:08:52;;;;;;;3.22;2.90;;;29.20;59.90;;;;;;5022193;28;20564;-58
2022/06/27 08:11:23;;;;;;;3.22;2.90;;;29.20;59.80;;;;;;5029997;28;20097;-57
2022/06/27 08:13:50;;;;;;;3.65;3.00;;;29.20;59.80;;;;;;5025639;28;20417;-57
2022/06/27 08:16:18;;;;;;;2.55;2.35;;;29.20;59.90;;;;;;5035512;28;20029;-58
2022/06/27 08:18:46;;;;;;;3.17;2.90;;;29.20;59.80;;;;;;5033305;28;20120;-58
2022/06/27 08:21:14;;;;;;;2.58;2.38;;;29.10;59.70;;;;;;5023553;28;20370;-58
2022/06/27 08:23:40;;;;;;;3.10;2.80;;;29.10;59.70;;;;;;5029724;28;20037;-58
2022/06/27 08:26:08;;;;;;;3.10;2.80;;;29.10;59.90;;;;;;5018226;28;20101;-58
2022/06/27 08:28:36;;;;;;;3.00;2.70;;;29.10;59.90;;;;;;5034097;28;20072;-58
2022/06/27 08:31:07;;;;;;;3.20;2.90;;;29.10;59.90;;;;;;5031204;28;20555;-58
2022/06/27 08:33:34;;;;;;;3.65;3.17;;;29.10;59.90;;;;;;5033277;28;20481;-57
2022/06/27 08:36:01;;;;;;;3.15;2.85;;;29.00;59.90;;;;;;5027524;28;20029;-58
2022/06/27 08:38:28;;;;;;;2.75;2.55;;;29.00;60.00;;;;;;5029259;28;20445;-58
2022/06/27 08:40:54;;;;;;;3.08;2.65;;;29.00;60.10;;;;;;5026996;28;20033;-58
2022/06/27 08:43:21;;;;;;;3.45;2.67;;;29.00;60.20;;;;;;5019986;28;20033;-58
2022/06/27 08:45:48;;;;;;;2.75;2.33;;;29.00;60.10;;;;;;5027158;28;20492;-58
2022/06/27 08:48:14;;;;;;;2.65;2.45;;;28.90;60.70;;;;;;5026270;28;20057;-58
2022/06/27 08:50:42;;;;;;;2.70;2.50;;;28.90;59.80;;;;;;5021765;28;20037;-58
2022/06/27 08:53:10;;;;;;;3.45;2.72;;;28.90;59.70;;;;;;5023109;28;20041;-57
2022/06/27 08:55:36;;;;;;;3.08;2.78;;;28.90;59.70;;;;;;5025062;28;20109;-58
2022/06/27 08:58:06;;;;;;;3.72;2.95;;;28.80;59.70;;;;;;5026779;28;20049;-57
2022/06/27 09:00:36;;;;;;;3.25;2.80;;;28.80;59.80;;;;;;5021858;28;20437;-58
2022/06/27 09:03:03;;;;;;;3.40;3.10;;;28.80;59.60;;;;;;5030769;28;20488;-57
2022/06/27 09:05:31;;;;;;;3.05;2.78;;;28.80;59.50;;;;;;5032503;28;20040;-58
2022/06/27 09:08:02;;;;;;;2.95;2.65;;;28.70;59.00;;;;;;5033142;28;20025;-58
2022/06/27 09:10:40;;;;;;;3.08;2.60;;;28.70;58.80;;;;;;5029412;28;20026;-58
2022/06/27 09:13:08;;;;;;;2.97;2.78;;;28.70;58.90;;;;;;5032329;28;20082;-58
2022/06/27 09:15:44;;;;;;;3.63;2.75;;;28.70;58.80;;;;;;5032498;28;20021;-58
2022/06/27 09:18:11;;;;;;;3.17;2.67;;;28.60;59.00;;;;;;5028674;28;20464;-58
2022/06/27 09:21:03;;;;;;;2.78;2.58;;;28.60;58.20;;;;;;5035433;28;20720;-57
2022/06/27 09:23:35;;;;;;;3.65;3.10;;;28.60;58.00;;;;;;5024387;28;20014;-58
2022/06/27 09:26:30;;;;;;;3.65;2.72;;;28.60;58.10;;;;;;5034207;28;20021;-58
2022/06/27 09:29:09;;;;;;;2.90;2.60;;;28.60;58.40;;;;;;5033853;28;20527;-58
2022/06/27 09:31:50;;;;;;;2.88;2.58;;;28.60;58.60;;;;;;5024591;28;20022;-58
2022/06/27 09:34:18;;;;;;;4.57;2.95;;;28.60;58.80;;;;;;5022547;28;20026;-57
2022/06/27 09:36:47;;;;;;;2.90;2.67;;;28.60;58.60;;;;;;5030248;28;20026;-57
2022/06/27 09:39:21;;;;;;;2.90;2.60;;;28.60;58.30;;;;;;5032658;28;20026;-57
2022/06/27 09:41:54;;;;;;;4.07;3.03;;;28.60;58.10;;;;;;5030465;28;20048;-58
2022/06/27 09:44:22;;;;;;;3.50;2.88;;;28.60;57.70;;;;;;5034078;28;20128;-58
2022/06/27 09:46:54;;;;;;;3.55;2.88;;;28.50;57.90;;;;;;5033338;28;20228;-58
2022/06/27 09:49:23;;;;;;;3.55;3.13;;;28.50;58.00;;;;;;5031369;28;20083;-58
2022/06/27 09:51:50;;;;;;;3.67;3.17;;;28.50;58.40;;;;;;5026735;28;20131;-58
2022/06/27 09:54:22;;;;;;;3.22;2.90;;;28.40;58.20;;;;;;5031729;28;20026;-58
2022/06/27 09:56:50;;;;;;;3.55;3.08;;;28.40;58.50;;;;;;5020475;28;20501;-58
2022/06/27 09:59:16;;;;;;;4.35;3.40;;;28.40;58.60;;;;;;5022546;28;20381;-58
2022/06/27 10:01:43;;;;;;;3.40;2.90;;;28.40;58.90;;;;;;5018612;28;20037;-58
2022/06/27 10:04:10;;;;;;;3.00;2.70;;;28.40;59.10;;;;;;5027206;28;20510;-58
2022/06/27 10:06:39;;;;;;;3.17;2.88;;;28.40;59.80;;;;;;5022643;28;20028;-58
2022/06/27 10:09:08;;;;;;;2.80;2.60;;;28.30;59.80;;;;;;5020544;28;20026;-58
2022/06/27 10:11:36;;;;;;;3.70;3.33;;;28.30;59.70;;;;;;5029123;28;20033;-58
2022/06/27 10:14:22;;;;;;;3.00;2.70;;;28.30;59.90;;;;;;5026393;28;20488;-58
2022/06/27 10:17:14;;;;;;;3.15;2.85;;;28.30;59.70;;;;;;5020883;28;20489;-58
2022/06/27 10:20:00;;;;;;;2.63;2.42;;;28.30;59.30;;;;;;5022272;28;20029;-58
2022/06/27 10:22:26;;;;;;;4.55;2.83;;;28.30;59.50;;;;;;5018614;28;20432;-58
2022/06/27 10:24:51;;;;;;;2.70;2.50;;;28.20;59.60;;;;;;5021340;28;20030;-58
2022/06/27 10:27:31;;;;;;;3.35;2.70;;;28.20;59.50;;;;;;5021153;28;20032;-58
2022/06/27 10:29:59;;;;;;;3.42;2.67;;;28.20;59.50;;;;;;5023449;28;20048;-58
2022/06/27 10:32:46;;;;;;;2.95;2.50;;;28.20;59.60;;;;;;5019488;28;20029;-58
2022/06/27 10:35:13;;;;;;;2.83;2.63;;;28.20;59.50;;;;;;5028522;28;20432;-58
2022/06/27 10:37:41;;;;;;;3.25;2.65;;;28.10;59.40;;;;;;5032496;28;20029;-57
2022/06/27 10:40:19;;;;;;;2.67;2.47;;;28.10;59.80;;;;;;5030201;28;20026;-58
2022/06/27 10:42:55;;;;;;;4.32;2.80;;;28.10;60.00;;;;;;5027910;28;20441;-58
2022/06/27 10:45:20;;;;;;;3.47;2.67;;;28.10;60.20;;;;;;5025470;28;20030;-58
2022/06/27 10:47:50;;;;;;;3.08;2.65;;;28.10;60.60;;;;;;5029619;28;20040;-57
2022/06/27 10:50:18;;;;;;;3.47;3.17;;;28.10;60.50;;;;;;5028281;28;20036;-58
2022/06/27 10:52:44;;;;;;;3.80;2.85;;;28.10;60.20;;;;;;5028533;28;20042;-59
2022/06/27 10:55:42;;;;;;;3.20;2.65;;;28.10;59.90;;;;;;5019073;28;20116;-59
2022/06/27 10:58:28;;;;;;;3.30;3.00;;;28.10;60.20;;;;;;5032564;28;20136;-59
2022/06/27 11:01:15;;;;;;;2.40;2.20;;;28.10;60.30;;;;;;5026344;28;20513;-59
2022/06/27 11:03:41;;;;;;;4.03;2.55;;;28.10;59.80;;;;;;5037159;28;20052;-59
2022/06/27 11:06:08;;;;;;;2.30;2.10;;;28.10;59.90;;;;;;5029322;28;20025;-59
2022/06/27 11:08:37;;;;;;;3.00;2.67;;;28.10;59.80;;;;;;5023145;28;20051;-59
2022/06/27 11:11:07;;;;;;;2.70;2.50;;;28.00;59.90;;;;;;5028142;28;20062;-59
2022/06/27 11:13:48;;;;;;;3.47;2.53;;;28.00;60.00;;;;;;5025385;28;20013;-59
2022/06/27 11:16:34;;;;;;;3.60;2.70;;;28.10;60.00;;;;;;5016103;28;20489;-59
2022/06/27 11:20:04;;;;;;;2.28;2.08;;;28.10;59.70;;;;;;5022790;28;20033;-59
2022/06/27 11:21:50;;;;;;;2.85;2.60;;;28.00;60.00;;;;;;5025422;28;20041;-59
2022/06/27 11:24:16;;;;;;;2.67;2.47;;;28.00;59.90;;;;;;5026360;28;20427;-59
2022/06/27 11:26:48;;;;;;;2.90;2.70;;;28.00;59.50;;;;;;5023850;28;20453;-58
2022/06/27 11:32:12;;;;;;;3.05;2.75;;;28.00;58.80;;;;;;5019903;28;20488;-59
2022/06/27 11:34:43;;;;;;;2.63;2.42;;;28.00;59.30;;;;;;5024005;28;20080;-59
2022/06/27 11:37:13;;;;;;;2.55;2.35;;;28.00;58.90;;;;;;5026845;28;20025;-59
2022/06/27 11:39:39;;;;;;;2.47;2.25;;;28.00;59.00;;;;;;5017253;28;20106;-59
2022/06/27 11:42:09;;;;;;;2.90;2.50;;;28.00;58.90;;;;;;5025200;28;20128;-59
2022/06/27 11:44:59;;;;;;;2.75;2.50;;;27.90;58.60;;;;;;5025534;28;20113;-59
2022/06/27 11:47:28;;;;;;;1.92;1.83;;;27.90;58.30;;;;;;5016983;28;20040;-59
2022/06/27 11:50:05;;;;;;;2.60;2.40;;;27.90;58.40;;;;;;5019041;28;20065;-59
2022/06/27 11:52:39;;;;;;;3.38;2.50;;;27.90;58.40;;;;;;5016371;28;20042;-59
2022/06/27 11:55:10;;;;;;;2.90;2.58;;;27.80;58.60;;;;;;5022065;28;20026;-59
2022/06/27 11:57:36;;;;;;;2.25;2.13;;;27.90;58.80;;;;;;5023945;28;20029;-59
2022/06/27 12:00:05;;;;;;;2.58;2.38;;;27.90;58.50;;;;;;5015892;28;20031;-59
2022/06/27 12:02:34;;;;;;;2.38;2.17;;;27.80;57.60;;;;;;5017678;28;20033;-59
2022/06/27 12:05:26;;;;;;;2.45;2.25;;;27.80;57.80;;;;;;5020931;28;20041;-59
2022/06/27 12:08:02;;;;;;;3.50;2.42;;;27.90;58.00;;;;;;5015453;28;20084;-58
2022/06/27 12:13:31;;;;;;;2.92;2.63;;;27.80;58.00;;;;;;5016562;28;20028;-58
2022/06/27 12:16:01;;;;;;;2.33;2.13;;;27.80;57.80;;;;;;5013943;28;20477;-59
2022/06/27 12:18:33;;;;;;;2.35;2.15;;;27.80;56.80;;;;;;5016421;28;20034;-59
2022/06/27 12:20:59;;;;;;;2.63;2.08;;;27.80;56.80;;;;;;5019534;28;20504;-59
2022/06/27 12:23:24;;;;;;;2.00;1.90;;;27.80;56.70;;;;;;5013035;28;20033;-59
2022/06/27 12:25:50;;;;;;;2.47;1.88;;;27.80;56.80;;;;;;5010010;28;20384;-59
2022/06/27 12:28:16;;;;;;;2.83;2.47;;;27.70;57.20;;;;;;5018290;28;20096;-58
2022/06/27 12:30:41;;;;;;;2.42;2.08;;;27.70;57.60;;;;;;5020313;28;20389;-59
2022/06/27 12:33:07;;;;;;;2.40;2.17;;;27.70;57.80;;;;;;5016948;28;20041;-58
2022/06/27 12:35:34;;;;;;;1.80;1.70;;;27.70;58.00;;;;;;5016098;28;20041;-58
2022/06/27 12:38:00;;;;;;;2.58;2.20;;;27.70;58.20;;;;;;5019798;28;20033;-59
2022/06/27 12:40:26;;;;;;;3.22;2.40;;;27.60;58.00;;;;;;5023418;28;20029;-58
2022/06/27 12:42:52;;;;;;;2.47;2.17;;;27.70;58.20;;;;;;5021878;28;20037;-57
2022/06/27 12:45:17;;;;;;;3.00;2.53;;;27.60;58.50;;;;;;5027890;28;20029;-58
2022/06/27 12:47:43;;;;;;;2.55;2.28;;;27.60;58.40;;;;;;5026739;28;20034;-57
2022/06/27 12:50:09;;;;;;;2.80;2.30;;;27.60;58.50;;;;;;5023037;28;20463;-58
2022/06/27 12:52:35;;;;;;;2.15;2.03;;;27.60;58.40;;;;;;5029522;28;20069;-58
2022/06/27 12:55:00;;;;;;;2.63;2.42;;;27.50;58.40;;;;;;5019073;28;20026;-58
2022/06/27 12:57:26;;;;;;;3.00;2.40;;;27.50;58.60;;;;;;5015768;28;20033;-58
2022/06/27 12:59:52;;;;;;;2.88;2.28;;;27.50;58.50;;;;;;5022731;28;20029;-58
2022/06/27 13:02:17;;;;;;;2.70;2.10;;;27.50;58.70;;;;;;5024146;28;20057;-58
2022/06/27 13:04:43;;;;;;;2.35;2.15;;;27.50;58.20;;;;;;5018925;28;20068;-58